Celebrity Constellation — 9HJB9 — position and weather

sailwx.info

Track history (hours):
 
Tides and Currents Weather Stations Pressure Air Temp Water Temp Dewpoint Dewpoint Depression Visibility Wind Speed Wind Dir Waves Ship Positions

Celebrity Constellation

Last reported at 2017-Jul-21 02:23 UTC. Time now 2017-Jul-21 02:32 UTC.
Position N 40°25' E 014°23'.

Length 294 m; draft 8.3 m.

Type: Passenger vessel. MMSI: 249046000.

Date/timePositionNaut miles runAvg speedWind from/ knotsBaromVisibWave heightAir tempDewpointWater temp
2017-Jul-21 02:23N 40°25' E 014°23'718.0
2017-Jul-21 02:00N 40°18' E 014°24'419.8 030 / 91013.010.8 25.022.225.0
2017-Jul-21 01:46N 40°16' E 014°29'8317.3
2017-Jul-20 21:00N 39°00' E 015°12'514.8 310 / 151015.0 5.4 23.0 23.0
2017-Jul-20 20:41N 38°59' E 015°18'616.8
2017-Jul-20 20:19N 38°54' E 015°21'516.7
2017-Jul-20 20:00N 38°49' E 015°23'916.8
2017-Jul-20 19:28N 38°40' E 015°28'817.1
2017-Jul-20 19:00N 38°33' E 015°32'917.0
2017-Jul-20 18:30N 38°26' E 015°38'917.0
2017-Jul-20 18:00N 38°18' E 015°43'714.4
2017-Jul-20 17:30N 38°13' E 015°37'916.7
2017-Jul-20 16:59N 38°05' E 015°35'41 5.9
2017-Jul-20 10:00N 37°30' E 015°06'33 4.2 310 / 151014.010.8 26.024.625.0
2017-Jul-20 02:00N 37°00' E 015°24'2512.0 310 / 151014.010.8 26.024.625.0
2017-Jul-19 23:55N 36°37' E 015°13'614.4
2017-Jul-19 23:29N 36°31' E 015°08'814.1
2017-Jul-19 22:55N 36°25' E 015°03'713.8
2017-Jul-19 22:27N 36°20' E 014°58'613.8
2017-Jul-19 22:01N 36°15' E 014°54'713.9
2017-Jul-19 21:30N 36°09' E 014°48'714.1
2017-Jul-19 21:00N 36°04' E 014°43'714.1
2017-Jul-19 20:30N 35°59' E 014°37'612.7
2017-Jul-19 20:00N 35°54' E 014°31'101018.9
2017-Jul-19 20:00N 35°48' E 014°42'10 0.7 070 / 21019.010.8 26.021.724.0
2017-Jul-19 07:00N 35°48' E 014°30'0 0.0 070 / 21019.010.8 26.021.724.0
2017-Jul-19 02:00N 35°48' E 014°30'0 0.0 070 / 21019.010.8 26.021.724.0
2017-Jul-18 10:00N 35°48' E 014°30'6 1.0 060 / 81018.010.8 26.0 24.0
2017-Jul-18 04:06N 35°54' E 014°31'1 6.4
2017-Jul-18 04:00N 35°54' E 014°32'5 9.6
2017-Jul-18 03:30N 35°57' E 014°36'612.6
2017-Jul-18 03:00N 36°02' E 014°42'1213.0
2017-Jul-18 02:04N 36°11' E 014°51'113.3
2017-Jul-18 01:58N 36°12' E 014°52'7214.1
2017-Jul-17 20:49N 37°09' E 015°49'3 3.9
2017-Jul-17 20:00N 37°12' E 015°48'23713.2 010 / 311011.010.8 22.017.426.0
2017-Jul-17 02:00N 40°30' E 018°36'5413.5 010 / 311011.010.8 22.017.426.0
2017-Jul-16 22:00N 41°24' E 018°30'50 2.4 040 / 381016.010.8 26.0 23.0
2017-Jul-16 01:00N 42°12' E 018°12'26 1.7 060 / 271011.010.8 24.016.323.0
2017-Jul-15 10:00N 42°36' E 018°00'0 0.0 280 / 211015.010.8 26.0 23.0
2017-Jul-14 20:00N 42°36' E 018°00'169 8.5 280 / 111015.010.8 26.0 23.0
2017-Jul-14 00:00N 43°48' E 014°30'1316.9 070 / 181011.010.8 26.013.226.0
2017-Jul-13 23:13N 43°57' E 014°18'1216.8
2017-Jul-13 22:31N 44°05' E 014°05'017.0
2017-Jul-13 22:30N 44°05' E 014°04'916.7
2017-Jul-13 21:57N 44°13' E 013°57'1016.5
2017-Jul-13 21:19N 44°21' E 013°49'516.6
2017-Jul-13 21:00N 44°25' E 013°44'6454.8
2017-Jul-13 21:00N 44°24' E 013°36'816.2 050 / 331015.010.8 23.0 21.0
2017-Jul-13 20:30N 44°32' E 013°38'816.0
2017-Jul-13 20:00N 44°38' E 013°31'816.2
2017-Jul-13 19:31N 44°45' E 013°25'816.0
2017-Jul-13 19:00N 44°51' E 013°18'815.8
2017-Jul-13 18:31N 44°58' E 013°12'815.8
2017-Jul-13 18:00N 45°04' E 013°04'816.0
2017-Jul-13 17:30N 45°09' E 012°56'815.9
2017-Jul-13 17:00N 45°15' E 012°48'815.5
2017-Jul-13 16:31N 45°20' E 012°39'714.9
2017-Jul-13 16:00N 45°23' E 012°30'611.3
2017-Jul-13 15:30N 45°26' E 012°23'3 5.6
2017-Jul-13 15:00N 45°26' E 012°19'1 0.9
2017-Jul-13 14:16N 45°26' E 012°19'0 0.0
2017-Jul-13 13:58N 45°26' E 012°19'0 0.0
2017-Jul-13 13:28N 45°26' E 012°19'0 0.0
2017-Jul-13 12:58N 45°26' E 012°19'0 0.0
2017-Jul-13 12:28N 45°26' E 012°19'0 0.0
2017-Jul-13 11:58N 45°26' E 012°19'0 0.0
2017-Jul-13 11:28N 45°26' E 012°19'0 0.0
2017-Jul-13 10:58N 45°26' E 012°19'0 0.0
2017-Jul-13 10:28N 45°26' E 012°19'2 4.7
2017-Jul-13 10:00N 45°24' E 012°18'275.1 010 / 101016.010.8 26.0 24.0
2017-Jul-13 09:58N 45°26' E 012°19'0 0.0
2017-Jul-13 09:28N 45°26' E 012°19'0 0.0
2017-Jul-13 08:58N 45°26' E 012°19'0 0.0
2017-Jul-13 08:28N 45°26' E 012°19'0 0.0
2017-Jul-13 07:58N 45°26' E 012°19'0 0.0
2017-Jul-13 07:28N 45°26' E 012°19'0 0.0
2017-Jul-13 06:58N 45°26' E 012°19'0 0.0
2017-Jul-13 06:28N 45°26' E 012°19'0 0.0
2017-Jul-13 05:58N 45°26' E 012°19'0 0.0
2017-Jul-13 05:28N 45°26' E 012°19'0 0.0
2017-Jul-13 04:58N 45°26' E 012°19'0 0.0
2017-Jul-13 04:28N 45°26' E 012°19'0 0.0
2017-Jul-13 04:00N 45°26' E 012°19'0 0.4
2017-Jul-13 03:30N 45°26' E 012°18'1 3.0
2017-Jul-13 03:00N 45°26' E 012°21'3 6.0
2017-Jul-13 02:30N 45°26' E 012°25'4 8.9
2017-Jul-13 02:00N 45°23' E 012°30'3 6.8
2017-Jul-13 01:30N 45°22' E 012°34'5 9.3
2017-Jul-13 01:00N 45°19' E 012°39'5 9.4
2017-Jul-13 00:30N 45°15' E 012°44'5 9.4
2017-Jul-13 00:00N 45°12' E 012°49'4 8.8
2017-Jul-12 23:30N 45°10' E 012°55'4 7.9
2017-Jul-12 23:01N 45°12' E 012°60'4 8.5
2017-Jul-12 22:31N 45°16' E 012°60'4 8.0
2017-Jul-12 22:00N 45°20' E 012°60'3 6.5
2017-Jul-12 21:31N 45°23' E 013°02'4 7.1
2017-Jul-12 21:01N 45°25' E 013°06'4 8.3
2017-Jul-12 20:30N 45°28' E 013°10'4 8.7
2017-Jul-12 20:01N 45°31' E 013°14'4 8.7
2017-Jul-12 19:30N 45°33' E 013°20'4 8.6
2017-Jul-12 19:01N 45°35' E 013°25'4 8.3
2017-Jul-12 18:31N 45°37' E 013°31'4 7.9
2017-Jul-12 18:01N 45°37' E 013°36'4 8.2
2017-Jul-12 17:30N 45°34' E 013°41'2 4.4
2017-Jul-12 16:57N 45°33' E 013°44'0 0.0
2017-Jul-12 16:21N 45°33' E 013°44'0 0.0
2017-Jul-12 15:57N 45°33' E 013°44'0 0.0
2017-Jul-12 15:09N 45°33' E 013°44'0 0.0
2017-Jul-12 14:45N 45°33' E 013°44'0 0.0
2017-Jul-12 13:33N 45°33' E 013°44'0 0.0
2017-Jul-12 13:15N 45°33' E 013°44'0 0.0
2017-Jul-12 12:15N 45°33' E 013°44'0 0.0
2017-Jul-12 11:51N 45°33' E 013°44'0 0.0
2017-Jul-12 11:15N 45°33' E 013°44'0 0.0
2017-Jul-12 10:57N 45°33' E 013°44'0 0.0
2017-Jul-12 10:15N 45°33' E 013°44'312.4
2017-Jul-12 10:00N 45°30' E 013°42'324.0 320 / 91015.027.0 26.0 24.0
2017-Jul-12 09:51N 45°33' E 013°44'0 0.0
2017-Jul-12 09:15N 45°33' E 013°44'0 0.0
2017-Jul-12 09:00N 45°33' E 013°44'0 0.8
2017-Jul-12 08:30N 45°33' E 013°43'2 3.6
2017-Jul-12 08:00N 45°34' E 013°41'714.1
2017-Jul-12 07:30N 45°34' E 013°31'816.4
2017-Jul-12 07:00N 45°29' E 013°21'816.7
2017-Jul-12 06:30N 45°23' E 013°13'816.9
2017-Jul-12 06:00N 45°15' E 013°14'917.5
2017-Jul-12 05:30N 45°06' E 013°17'917.8
2017-Jul-12 05:00N 44°58' E 013°20'918.0
2017-Jul-12 04:30N 44°50' E 013°26'918.1
2017-Jul-12 04:00N 44°42' E 013°34'918.1
2017-Jul-12 03:30N 44°35' E 013°41'918.1
2017-Jul-12 03:00N 44°28' E 013°48'917.9
2017-Jul-12 02:30N 44°20' E 013°56'917.8
2017-Jul-12 02:00N 44°13' E 014°03'917.6
2017-Jul-12 01:30N 44°06' E 014°11'2017.7
2017-Jul-12 00:21N 43°53' E 014°32'617.7
2017-Jul-12 00:00N 43°49' E 014°38'7506.3
2017-Jul-12 00:00N 43°42' E 014°36'   140 / 141014.010.8 25.019.126.0
Track history (hours):
 
Tides and Currents Weather Stations Pressure Air Temp Water Temp Dewpoint Dewpoint Depression Visibility Wind Speed Wind Dir Waves Ship Positions

Celebrity Constellation

Last reported at 2017-Jul-21 02:23 UTC. Time now 2017-Jul-21 02:32 UTC.
Position N 40°25' E 014°23'.

Length 294 m; draft 8.3 m.

Type: Passenger vessel. MMSI: 249046000.

Date/timePositionNaut miles runAvg speedWind from/ knotsBaromVisibWave heightAir tempDewpointWater temp
2017-Jul-21 02:23N 40°25' E 014°23'718.0
2017-Jul-21 02:00N 40°18' E 014°24'419.8 030 / 91013.010.8 25.022.225.0
2017-Jul-21 01:46N 40°16' E 014°29'8317.3
2017-Jul-20 21:00N 39°00' E 015°12'514.8 310 / 151015.0 5.4 23.0 23.0
2017-Jul-20 20:41N 38°59' E 015°18'616.8
2017-Jul-20 20:19N 38°54' E 015°21'516.7
2017-Jul-20 20:00N 38°49' E 015°23'916.8
2017-Jul-20 19:28N 38°40' E 015°28'817.1
2017-Jul-20 19:00N 38°33' E 015°32'917.0
2017-Jul-20 18:30N 38°26' E 015°38'917.0
2017-Jul-20 18:00N 38°18' E 015°43'714.4
2017-Jul-20 17:30N 38°13' E 015°37'916.7
2017-Jul-20 16:59N 38°05' E 015°35'41 5.9
2017-Jul-20 10:00N 37°30' E 015°06'33 4.2 310 / 151014.010.8 26.024.625.0
2017-Jul-20 02:00N 37°00' E 015°24'2512.0 310 / 151014.010.8 26.024.625.0
2017-Jul-19 23:55N 36°37' E 015°13'614.4
2017-Jul-19 23:29N 36°31' E 015°08'814.1
2017-Jul-19 22:55N 36°25' E 015°03'713.8
2017-Jul-19 22:27N 36°20' E 014°58'613.8
2017-Jul-19 22:01N 36°15' E 014°54'713.9
2017-Jul-19 21:30N 36°09' E 014°48'714.1
2017-Jul-19 21:00N 36°04' E 014°43'714.1
2017-Jul-19 20:30N 35°59' E 014°37'612.7
2017-Jul-19 20:00N 35°54' E 014°31'101018.9
2017-Jul-19 20:00N 35°48' E 014°42'10 0.7 070 / 21019.010.8 26.021.724.0
2017-Jul-19 07:00N 35°48' E 014°30'0 0.0 070 / 21019.010.8 26.021.724.0
2017-Jul-19 02:00N 35°48' E 014°30'0 0.0 070 / 21019.010.8 26.021.724.0
2017-Jul-18 10:00N 35°48' E 014°30'6 1.0 060 / 81018.010.8 26.0 24.0
2017-Jul-18 04:06N 35°54' E 014°31'1 6.4
2017-Jul-18 04:00N 35°54' E 014°32'5 9.6
2017-Jul-18 03:30N 35°57' E 014°36'612.6
2017-Jul-18 03:00N 36°02' E 014°42'1213.0
2017-Jul-18 02:04N 36°11' E 014°51'113.3
2017-Jul-18 01:58N 36°12' E 014°52'7214.1
2017-Jul-17 20:49N 37°09' E 015°49'3 3.9
2017-Jul-17 20:00N 37°12' E 015°48'23713.2 010 / 311011.010.8 22.017.426.0
2017-Jul-17 02:00N 40°30' E 018°36'5413.5 010 / 311011.010.8 22.017.426.0
2017-Jul-16 22:00N 41°24' E 018°30'50 2.4 040 / 381016.010.8 26.0 23.0
2017-Jul-16 01:00N 42°12' E 018°12'26 1.7 060 / 271011.010.8 24.016.323.0
2017-Jul-15 10:00N 42°36' E 018°00'0 0.0 280 / 211015.010.8 26.0 23.0
2017-Jul-14 20:00N 42°36' E 018°00'169 8.5 280 / 111015.010.8 26.0 23.0
2017-Jul-14 00:00N 43°48' E 014°30'1316.9 070 / 181011.010.8 26.013.226.0
2017-Jul-13 23:13N 43°57' E 014°18'1216.8
2017-Jul-13 22:31N 44°05' E 014°05'017.0
2017-Jul-13 22:30N 44°05' E 014°04'916.7
2017-Jul-13 21:57N 44°13' E 013°57'1016.5
2017-Jul-13 21:19N 44°21' E 013°49'516.6
2017-Jul-13 21:00N 44°25' E 013°44'6454.8
2017-Jul-13 21:00N 44°24' E 013°36'816.2 050 / 331015.010.8 23.0 21.0
2017-Jul-13 20:30N 44°32' E 013°38'816.0
2017-Jul-13 20:00N 44°38' E 013°31'816.2
2017-Jul-13 19:31N 44°45' E 013°25'816.0
2017-Jul-13 19:00N 44°51' E 013°18'815.8
2017-Jul-13 18:31N 44°58' E 013°12'815.8
2017-Jul-13 18:00N 45°04' E 013°04'816.0
2017-Jul-13 17:30N 45°09' E 012°56'815.9
2017-Jul-13 17:00N 45°15' E 012°48'815.5
2017-Jul-13 16:31N 45°20' E 012°39'714.9
2017-Jul-13 16:00N 45°23' E 012°30'611.3
2017-Jul-13 15:30N 45°26' E 012°23'3 5.6
2017-Jul-13 15:00N 45°26' E 012°19'1 0.9
2017-Jul-13 14:16N 45°26' E 012°19'0 0.0
2017-Jul-13 13:58N 45°26' E 012°19'0 0.0
2017-Jul-13 13:28N 45°26' E 012°19'0 0.0
2017-Jul-13 12:58N 45°26' E 012°19'0 0.0
2017-Jul-13 12:28N 45°26' E 012°19'0 0.0
2017-Jul-13 11:58N 45°26' E 012°19'0 0.0
2017-Jul-13 11:28N 45°26' E 012°19'0 0.0
2017-Jul-13 10:58N 45°26' E 012°19'0 0.0
2017-Jul-13 10:28N 45°26' E 012°19'2 4.7
2017-Jul-13 10:00N 45°24' E 012°18'275.1 010 / 101016.010.8 26.0 24.0
2017-Jul-13 09:58N 45°26' E 012°19'0 0.0
2017-Jul-13 09:28N 45°26' E 012°19'0 0.0
2017-Jul-13 08:58N 45°26' E 012°19'0 0.0
2017-Jul-13 08:28N 45°26' E 012°19'0 0.0
2017-Jul-13 07:58N 45°26' E 012°19'0 0.0
2017-Jul-13 07:28N 45°26' E 012°19'0 0.0
2017-Jul-13 06:58N 45°26' E 012°19'0 0.0
2017-Jul-13 06:28N 45°26' E 012°19'0 0.0
2017-Jul-13 05:58N 45°26' E 012°19'0 0.0
2017-Jul-13 05:28N 45°26' E 012°19'0 0.0
2017-Jul-13 04:58N 45°26' E 012°19'0 0.0
2017-Jul-13 04:28N 45°26' E 012°19'0 0.0
2017-Jul-13 04:00N 45°26' E 012°19'0 0.4
2017-Jul-13 03:30N 45°26' E 012°18'1 3.0
2017-Jul-13 03:00N 45°26' E 012°21'3 6.0
2017-Jul-13 02:30N 45°26' E 012°25'4 8.9
2017-Jul-13 02:00N 45°23' E 012°30'3 6.8
2017-Jul-13 01:30N 45°22' E 012°34'5 9.3
2017-Jul-13 01:00N 45°19' E 012°39'5 9.4
2017-Jul-13 00:30N 45°15' E 012°44'5 9.4
2017-Jul-13 00:00N 45°12' E 012°49'4 8.8
2017-Jul-12 23:30N 45°10' E 012°55'4 7.9
2017-Jul-12 23:01N 45°12' E 012°60'4 8.5
2017-Jul-12 22:31N 45°16' E 012°60'4 8.0
2017-Jul-12 22:00N 45°20' E 012°60'3 6.5
2017-Jul-12 21:31N 45°23' E 013°02'4 7.1
2017-Jul-12 21:01N 45°25' E 013°06'4 8.3
2017-Jul-12 20:30N 45°28' E 013°10'4 8.7
2017-Jul-12 20:01N 45°31' E 013°14'4 8.7
2017-Jul-12 19:30N 45°33' E 013°20'4 8.6
2017-Jul-12 19:01N 45°35' E 013°25'4 8.3
2017-Jul-12 18:31N 45°37' E 013°31'4 7.9
2017-Jul-12 18:01N 45°37' E 013°36'4 8.2
2017-Jul-12 17:30N 45°34' E 013°41'2 4.4
2017-Jul-12 16:57N 45°33' E 013°44'0 0.0
2017-Jul-12 16:21N 45°33' E 013°44'0 0.0
2017-Jul-12 15:57N 45°33' E 013°44'0 0.0
2017-Jul-12 15:09N 45°33' E 013°44'0 0.0
2017-Jul-12 14:45N 45°33' E 013°44'0 0.0
2017-Jul-12 13:33N 45°33' E 013°44'0 0.0
2017-Jul-12 13:15N 45°33' E 013°44'0 0.0
2017-Jul-12 12:15N 45°33' E 013°44'0 0.0
2017-Jul-12 11:51N 45°33' E 013°44'0 0.0
2017-Jul-12 11:15N 45°33' E 013°44'0 0.0
2017-Jul-12 10:57N 45°33' E 013°44'0 0.0
2017-Jul-12 10:15N 45°33' E 013°44'312.4
2017-Jul-12 10:00N 45°30' E 013°42'324.0 320 / 91015.027.0 26.0 24.0
2017-Jul-12 09:51N 45°33' E 013°44'0 0.0
2017-Jul-12 09:15N 45°33' E 013°44'0 0.0
2017-Jul-12 09:00N 45°33' E 013°44'0 0.8
2017-Jul-12 08:30N 45°33' E 013°43'2 3.6
2017-Jul-12 08:00N 45°34' E 013°41'714.1
2017-Jul-12 07:30N 45°34' E 013°31'816.4
2017-Jul-12 07:00N 45°29' E 013°21'816.7
2017-Jul-12 06:30N 45°23' E 013°13'816.9
2017-Jul-12 06:00N 45°15' E 013°14'917.5
2017-Jul-12 05:30N 45°06' E 013°17'917.8
2017-Jul-12 05:00N 44°58' E 013°20'918.0
2017-Jul-12 04:30N 44°50' E 013°26'918.1
2017-Jul-12 04:00N 44°42' E 013°34'918.1
2017-Jul-12 03:30N 44°35' E 013°41'918.1
2017-Jul-12 03:00N 44°28' E 013°48'917.9
2017-Jul-12 02:30N 44°20' E 013°56'917.8
2017-Jul-12 02:00N 44°13' E 014°03'917.6
2017-Jul-12 01:30N 44°06' E 014°11'2017.7
2017-Jul-12 00:21N 43°53' E 014°32'617.7
2017-Jul-12 00:00N 43°49' E 014°38'7506.3
2017-Jul-12 00:00N 43°42' E 014°36'   140 / 141014.010.8 25.019.126.0

Dump ship's entire track history